Overview Statistics Trail Chart Weather Telemetry Raw packets
 

This is the latest recevied weather packets stored in our database for station/object ED3YAB-7. If no packets are shown the sender has not sent any weather packets the latest 10 day(s).

<< 7 8 9 10 11 12 13 >>
Time Temp. Humidity Pressure Rain* Wind** Luminosity Snow
1777990526 24.44° C 30% 1014.7 hPa - - - -
1777990519 24.44° C 30% 1014.7 hPa - - - -
1777989318 23.33° C 35% 1015.1 hPa - - - -
1777988126 22.22° C 35% 1015.4 hPa - - - -
1777988118 22.22° C 35% 1015.4 hPa - - - -
1777985726 21.11° C 38% 1015.8 hPa - - - -
1777984527 25.56° C 31% 1015.9 hPa - - - -
1777984520 25.56° C 31% 1015.9 hPa - - - -
1777983318 25° C 34% 1016.1 hPa - - - -
1777982125 22.78° C 36% 1016.3 hPa - - - -
1777982118 22.78° C 36% 1016.3 hPa - - - -
1777980925 21.67° C 38% 1016.4 hPa - - - -
1777980917 21.67° C 38% 1016.4 hPa - - - -
1777979717 22.78° C 37% 1016.6 hPa - - - -
1777978525 22.22° C 39% 1016.8 hPa - - - -
1777978517 22.22° C 39% 1016.8 hPa - - - -
1777977324 21.67° C 39% 1016.9 hPa - - - -
1777977317 21.67° C 39% 1016.9 hPa - - - -
1777976117 20° C 44% 1016.9 hPa - - - -
1777974917 18.33° C 47% 1016.9 hPa - - - -
1777973806 18.33° C 49% 1016.9 hPa - - - -
1777973717 18.33° C 49% 1016.9 hPa - - - -
1777972521 16.11° C 53% 1017 hPa - - - -
1777971328 15.56° C 54% 1017 hPa - - - -
1777971321 15.56° C 54% 1017 hPa - - - -

* Rain since midnight (hover to see other rain measurements)
** Current wind speed in m/s (hover to see current wind gust speed)